<?xml version="1.0" encoding="UTF-8" standalone="no" ?>
<gpx xmlns="http://www.topografix.com/GPX/1/1" xmlns:xsi="http://www.w3.org/2001/XMLSchema-instance" xsi:schemaLocation="http://www.topografix.com/GPX/1/1 http://www.topografix.com/GPX/1/1/gpx.xsd" version="1.1" creator="VisuGPX - https://www.visugpx.com">
  <metadata>
    <name>2019-04-01-46-Caïx</name>
    <desc><![CDATA[Randonnée de11,5km pour environ 300m de dénivelé positif. de belles vues sur la vallée du Lot, avec un passage dans le tunnel férrovière.]]></desc>
  </metadata>
  <trk>
    <name><![CDATA[CAIX 1 04 2019]]></name>
    <trkseg>
      <trkpt lat="44.49097" lon="1.29483">
        <ele>-20</ele>
        <time>2018-12-26T13:23:32Z</time>
      </trkpt>
      <trkpt lat="44.49089" lon="1.29493">
        <ele>22</ele>
        <time>2018-12-26T13:23:46Z</time>
      </trkpt>
      <trkpt lat="44.49078" lon="1.29498">
        <ele>62</ele>
        <time>2018-12-26T13:24:08Z</time>
      </trkpt>
      <trkpt lat="44.49068" lon="1.29498">
        <ele>71</ele>
        <time>2018-12-26T13:24:17Z</time>
      </trkpt>
      <trkpt lat="44.4906" lon="1.29502">
        <ele>79</ele>
        <time>2018-12-26T13:24:27Z</time>
      </trkpt>
      <trkpt lat="44.49052" lon="1.29512">
        <ele>87</ele>
        <time>2018-12-26T13:24:38Z</time>
      </trkpt>
      <trkpt lat="44.4905" lon="1.29526">
        <ele>93</ele>
        <time>2018-12-26T13:24:47Z</time>
      </trkpt>
      <trkpt lat="44.49049" lon="1.29541">
        <ele>98</ele>
        <time>2018-12-26T13:24:56Z</time>
      </trkpt>
      <trkpt lat="44.49051" lon="1.29554">
        <ele>103</ele>
        <time>2018-12-26T13:25:06Z</time>
      </trkpt>
      <trkpt lat="44.49059" lon="1.29564">
        <ele>105</ele>
        <time>2018-12-26T13:25:15Z</time>
      </trkpt>
      <trkpt lat="44.49068" lon="1.29572">
        <ele>109</ele>
        <time>2018-12-26T13:25:24Z</time>
      </trkpt>
      <trkpt lat="44.49079" lon="1.29575">
        <ele>113</ele>
        <time>2018-12-26T13:25:33Z</time>
      </trkpt>
      <trkpt lat="44.49089" lon="1.2957">
        <ele>115</ele>
        <time>2018-12-26T13:25:45Z</time>
      </trkpt>
      <trkpt lat="44.49103" lon="1.29581">
        <ele>116</ele>
        <time>2018-12-26T13:26:11Z</time>
      </trkpt>
      <trkpt lat="44.49095" lon="1.29606">
        <ele>115</ele>
        <time>2018-12-26T13:26:29Z</time>
      </trkpt>
      <trkpt lat="44.4909" lon="1.2962">
        <ele>114</ele>
        <time>2018-12-26T13:26:38Z</time>
      </trkpt>
      <trkpt lat="44.49082" lon="1.29633">
        <ele>114</ele>
        <time>2018-12-26T13:26:46Z</time>
      </trkpt>
      <trkpt lat="44.49077" lon="1.29647">
        <ele>114</ele>
        <time>2018-12-26T13:26:55Z</time>
      </trkpt>
      <trkpt lat="44.49067" lon="1.29665">
        <ele>115</ele>
        <time>2018-12-26T13:27:08Z</time>
      </trkpt>
      <trkpt lat="44.4906" lon="1.29678">
        <ele>115</ele>
        <time>2018-12-26T13:27:17Z</time>
      </trkpt>
      <trkpt lat="44.49045" lon="1.29695">
        <ele>114</ele>
        <time>2018-12-26T13:27:33Z</time>
      </trkpt>
      <trkpt lat="44.49031" lon="1.29698">
        <ele>114</ele>
        <time>2018-12-26T13:27:42Z</time>
      </trkpt>
      <trkpt lat="44.49024" lon="1.29683">
        <ele>114</ele>
        <time>2018-12-26T13:27:50Z</time>
      </trkpt>
      <trkpt lat="44.49014" lon="1.29686">
        <ele>114</ele>
        <time>2018-12-26T13:28:01Z</time>
      </trkpt>
      <trkpt lat="44.49005" lon="1.29696">
        <ele>114</ele>
        <time>2018-12-26T13:28:11Z</time>
      </trkpt>
      <trkpt lat="44.48996" lon="1.29706">
        <ele>114</ele>
        <time>2018-12-26T13:28:20Z</time>
      </trkpt>
      <trkpt lat="44.48989" lon="1.29716">
        <ele>114</ele>
        <time>2018-12-26T13:28:28Z</time>
      </trkpt>
      <trkpt lat="44.48982" lon="1.29727">
        <ele>114</ele>
        <time>2018-12-26T13:28:36Z</time>
      </trkpt>
      <trkpt lat="44.48975" lon="1.29739">
        <ele>114</ele>
        <time>2018-12-26T13:28:44Z</time>
      </trkpt>
      <trkpt lat="44.48968" lon="1.29747">
        <ele>114</ele>
        <time>2018-12-26T13:28:52Z</time>
      </trkpt>
      <trkpt lat="44.48962" lon="1.29758">
        <ele>114</ele>
        <time>2018-12-26T13:29:00Z</time>
      </trkpt>
      <trkpt lat="44.48955" lon="1.29768">
        <ele>114</ele>
        <time>2018-12-26T13:29:08Z</time>
      </trkpt>
      <trkpt lat="44.48946" lon="1.29776">
        <ele>114</ele>
        <time>2018-12-26T13:29:16Z</time>
      </trkpt>
      <trkpt lat="44.48935" lon="1.29773">
        <ele>115</ele>
        <time>2018-12-26T13:29:26Z</time>
      </trkpt>
      <trkpt lat="44.4893" lon="1.29761">
        <ele>114</ele>
        <time>2018-12-26T13:29:33Z</time>
      </trkpt>
      <trkpt lat="44.48924" lon="1.29748">
        <ele>114</ele>
        <time>2018-12-26T13:29:41Z</time>
      </trkpt>
      <trkpt lat="44.48916" lon="1.29739">
        <ele>114</ele>
        <time>2018-12-26T13:29:48Z</time>
      </trkpt>
      <trkpt lat="44.48906" lon="1.2974">
        <ele>114</ele>
        <time>2018-12-26T13:29:55Z</time>
      </trkpt>
      <trkpt lat="44.48893" lon="1.29748">
        <ele>115</ele>
        <time>2018-12-26T13:30:02Z</time>
      </trkpt>
      <trkpt lat="44.48878" lon="1.29756">
        <ele>115</ele>
        <time>2018-12-26T13:30:10Z</time>
      </trkpt>
      <trkpt lat="44.48868" lon="1.29762">
        <ele>115</ele>
        <time>2018-12-26T13:30:17Z</time>
      </trkpt>
      <trkpt lat="44.48857" lon="1.2977">
        <ele>115</ele>
        <time>2018-12-26T13:30:25Z</time>
      </trkpt>
      <trkpt lat="44.48849" lon="1.29778">
        <ele>115</ele>
        <time>2018-12-26T13:30:32Z</time>
      </trkpt>
      <trkpt lat="44.48841" lon="1.29788">
        <ele>116</ele>
        <time>2018-12-26T13:30:40Z</time>
      </trkpt>
      <trkpt lat="44.48834" lon="1.29798">
        <ele>116</ele>
        <time>2018-12-26T13:30:48Z</time>
      </trkpt>
      <trkpt lat="44.48828" lon="1.29808">
        <ele>116</ele>
        <time>2018-12-26T13:30:56Z</time>
      </trkpt>
      <trkpt lat="44.48821" lon="1.29819">
        <ele>117</ele>
        <time>2018-12-26T13:31:05Z</time>
      </trkpt>
      <trkpt lat="44.48812" lon="1.2983">
        <ele>117</ele>
        <time>2018-12-26T13:31:14Z</time>
      </trkpt>
      <trkpt lat="44.48803" lon="1.29839">
        <ele>117</ele>
        <time>2018-12-26T13:31:22Z</time>
      </trkpt>
      <trkpt lat="44.48795" lon="1.29848">
        <ele>118</ele>
        <time>2018-12-26T13:31:30Z</time>
      </trkpt>
      <trkpt lat="44.48786" lon="1.29857">
        <ele>118</ele>
        <time>2018-12-26T13:31:37Z</time>
      </trkpt>
      <trkpt lat="44.48775" lon="1.29866">
        <ele>119</ele>
        <time>2018-12-26T13:31:45Z</time>
      </trkpt>
      <trkpt lat="44.4876" lon="1.29879">
        <ele>119</ele>
        <time>2018-12-26T13:31:56Z</time>
      </trkpt>
      <trkpt lat="44.48746" lon="1.29889">
        <ele>119</ele>
        <time>2018-12-26T13:32:04Z</time>
      </trkpt>
      <trkpt lat="44.48737" lon="1.299">
        <ele>119</ele>
        <time>2018-12-26T13:32:13Z</time>
      </trkpt>
      <trkpt lat="44.48729" lon="1.29912">
        <ele>120</ele>
        <time>2018-12-26T13:32:21Z</time>
      </trkpt>
      <trkpt lat="44.48725" lon="1.29924">
        <ele>120</ele>
        <time>2018-12-26T13:32:28Z</time>
      </trkpt>
      <trkpt lat="44.4873" lon="1.29933">
        <ele>121</ele>
        <time>2018-12-26T13:32:35Z</time>
      </trkpt>
      <trkpt lat="44.48736" lon="1.29942">
        <ele>121</ele>
        <time>2018-12-26T13:32:43Z</time>
      </trkpt>
      <trkpt lat="44.4874" lon="1.29954">
        <ele>121</ele>
        <time>2018-12-26T13:32:51Z</time>
      </trkpt>
      <trkpt lat="44.48745" lon="1.29962">
        <ele>121</ele>
        <time>2018-12-26T13:32:59Z</time>
      </trkpt>
      <trkpt lat="44.48752" lon="1.29968">
        <ele>122</ele>
        <time>2018-12-26T13:33:06Z</time>
      </trkpt>
      <trkpt lat="44.4876" lon="1.29974">
        <ele>122</ele>
        <time>2018-12-26T13:33:13Z</time>
      </trkpt>
      <trkpt lat="44.48769" lon="1.2998">
        <ele>123</ele>
        <time>2018-12-26T13:33:20Z</time>
      </trkpt>
      <trkpt lat="44.48778" lon="1.29986">
        <ele>123</ele>
        <time>2018-12-26T13:33:27Z</time>
      </trkpt>
      <trkpt lat="44.48787" lon="1.29991">
        <ele>123</ele>
        <time>2018-12-26T13:33:35Z</time>
      </trkpt>
      <trkpt lat="44.48795" lon="1.29996">
        <ele>123</ele>
        <time>2018-12-26T13:33:42Z</time>
      </trkpt>
      <trkpt lat="44.48805" lon="1.30001">
        <ele>123</ele>
        <time>2018-12-26T13:33:49Z</time>
      </trkpt>
      <trkpt lat="44.48814" lon="1.30007">
        <ele>124</ele>
        <time>2018-12-26T13:33:56Z</time>
      </trkpt>
      <trkpt lat="44.48822" lon="1.30013">
        <ele>124</ele>
        <time>2018-12-26T13:34:03Z</time>
      </trkpt>
      <trkpt lat="44.48831" lon="1.30018">
        <ele>124</ele>
        <time>2018-12-26T13:34:10Z</time>
      </trkpt>
      <trkpt lat="44.4884" lon="1.30024">
        <ele>124</ele>
        <time>2018-12-26T13:34:17Z</time>
      </trkpt>
      <trkpt lat="44.4885" lon="1.30029">
        <ele>125</ele>
        <time>2018-12-26T13:34:24Z</time>
      </trkpt>
      <trkpt lat="44.4886" lon="1.30033">
        <ele>125</ele>
        <time>2018-12-26T13:34:31Z</time>
      </trkpt>
      <trkpt lat="44.4887" lon="1.30038">
        <ele>125</ele>
        <time>2018-12-26T13:34:38Z</time>
      </trkpt>
      <trkpt lat="44.48881" lon="1.30042">
        <ele>125</ele>
        <time>2018-12-26T13:34:46Z</time>
      </trkpt>
      <trkpt lat="44.48891" lon="1.30048">
        <ele>125</ele>
        <time>2018-12-26T13:34:54Z</time>
      </trkpt>
      <trkpt lat="44.48903" lon="1.3005">
        <ele>126</ele>
        <time>2018-12-26T13:35:16Z</time>
      </trkpt>
      <trkpt lat="44.48914" lon="1.30055">
        <ele>126</ele>
        <time>2018-12-26T13:35:28Z</time>
      </trkpt>
      <trkpt lat="44.48923" lon="1.30061">
        <ele>126</ele>
        <time>2018-12-26T13:35:39Z</time>
      </trkpt>
      <trkpt lat="44.48934" lon="1.30066">
        <ele>127</ele>
        <time>2018-12-26T13:35:48Z</time>
      </trkpt>
      <trkpt lat="44.48942" lon="1.30071">
        <ele>127</ele>
        <time>2018-12-26T13:35:57Z</time>
      </trkpt>
      <trkpt lat="44.48952" lon="1.30077">
        <ele>128</ele>
        <time>2018-12-26T13:36:07Z</time>
      </trkpt>
      <trkpt lat="44.48961" lon="1.30083">
        <ele>129</ele>
        <time>2018-12-26T13:36:16Z</time>
      </trkpt>
      <trkpt lat="44.48971" lon="1.30088">
        <ele>129</ele>
        <time>2018-12-26T13:36:24Z</time>
      </trkpt>
      <trkpt lat="44.4898" lon="1.30093">
        <ele>130</ele>
        <time>2018-12-26T13:36:32Z</time>
      </trkpt>
      <trkpt lat="44.48989" lon="1.30098">
        <ele>131</ele>
        <time>2018-12-26T13:36:40Z</time>
      </trkpt>
      <trkpt lat="44.48998" lon="1.30104">
        <ele>132</ele>
        <time>2018-12-26T13:36:48Z</time>
      </trkpt>
      <trkpt lat="44.49009" lon="1.30109">
        <ele>133</ele>
        <time>2018-12-26T13:36:57Z</time>
      </trkpt>
      <trkpt lat="44.49019" lon="1.30113">
        <ele>135</ele>
        <time>2018-12-26T13:37:07Z</time>
      </trkpt>
      <trkpt lat="44.49029" lon="1.3012">
        <ele>136</ele>
        <time>2018-12-26T13:37:17Z</time>
      </trkpt>
      <trkpt lat="44.49039" lon="1.30126">
        <ele>137</ele>
        <time>2018-12-26T13:37:26Z</time>
      </trkpt>
      <trkpt lat="44.49048" lon="1.30132">
        <ele>138</ele>
        <time>2018-12-26T13:37:35Z</time>
      </trkpt>
      <trkpt lat="44.49061" lon="1.30135">
        <ele>139</ele>
        <time>2018-12-26T13:37:44Z</time>
      </trkpt>
      <trkpt lat="44.49071" lon="1.30129">
        <ele>140</ele>
        <time>2018-12-26T13:37:53Z</time>
      </trkpt>
      <trkpt lat="44.49075" lon="1.30116">
        <ele>140</ele>
        <time>2018-12-26T13:38:01Z</time>
      </trkpt>
      <trkpt lat="44.49077" lon="1.30103">
        <ele>140</ele>
        <time>2018-12-26T13:38:08Z</time>
      </trkpt>
      <trkpt lat="44.49079" lon="1.30089">
        <ele>140</ele>
        <time>2018-12-26T13:38:16Z</time>
      </trkpt>
      <trkpt lat="44.49081" lon="1.30075">
        <ele>140</ele>
        <time>2018-12-26T13:38:23Z</time>
      </trkpt>
      <trkpt lat="44.49083" lon="1.30062">
        <ele>140</ele>
        <time>2018-12-26T13:38:29Z</time>
      </trkpt>
      <trkpt lat="44.49086" lon="1.30051">
        <ele>140</ele>
        <time>2018-12-26T13:38:35Z</time>
      </trkpt>
      <trkpt lat="44.49088" lon="1.30039">
        <ele>140</ele>
        <time>2018-12-26T13:38:41Z</time>
      </trkpt>
      <trkpt lat="44.49091" lon="1.30026">
        <ele>140</ele>
        <time>2018-12-26T13:38:48Z</time>
      </trkpt>
      <trkpt lat="44.49093" lon="1.30014">
        <ele>140</ele>
        <time>2018-12-26T13:38:54Z</time>
      </trkpt>
      <trkpt lat="44.49096" lon="1.30001">
        <ele>139</ele>
        <time>2018-12-26T13:39:01Z</time>
      </trkpt>
      <trkpt lat="44.49098" lon="1.29988">
        <ele>139</ele>
        <time>2018-12-26T13:39:08Z</time>
      </trkpt>
      <trkpt lat="44.49101" lon="1.29974">
        <ele>138</ele>
        <time>2018-12-26T13:39:15Z</time>
      </trkpt>
      <trkpt lat="44.49104" lon="1.2996">
        <ele>137</ele>
        <time>2018-12-26T13:39:22Z</time>
      </trkpt>
      <trkpt lat="44.49106" lon="1.29946">
        <ele>137</ele>
        <time>2018-12-26T13:39:29Z</time>
      </trkpt>
      <trkpt lat="44.49108" lon="1.29933">
        <ele>137</ele>
        <time>2018-12-26T13:39:36Z</time>
      </trkpt>
      <trkpt lat="44.4911" lon="1.29919">
        <ele>137</ele>
        <time>2018-12-26T13:39:43Z</time>
      </trkpt>
      <trkpt lat="44.49112" lon="1.29906">
        <ele>137</ele>
        <time>2018-12-26T13:39:50Z</time>
      </trkpt>
      <trkpt lat="44.49115" lon="1.29892">
        <ele>137</ele>
        <time>2018-12-26T13:39:57Z</time>
      </trkpt>
      <trkpt lat="44.49118" lon="1.2988">
        <ele>136</ele>
        <time>2018-12-26T13:40:04Z</time>
      </trkpt>
      <trkpt lat="44.4912" lon="1.29867">
        <ele>136</ele>
        <time>2018-12-26T13:40:11Z</time>
      </trkpt>
      <trkpt lat="44.49122" lon="1.29854">
        <ele>136</ele>
        <time>2018-12-26T13:40:19Z</time>
      </trkpt>
      <trkpt lat="44.49122" lon="1.2984">
        <ele>135</ele>
        <time>2018-12-26T13:40:27Z</time>
      </trkpt>
      <trkpt lat="44.49122" lon="1.29826">
        <ele>135</ele>
        <time>2018-12-26T13:40:35Z</time>
      </trkpt>
      <trkpt lat="44.49125" lon="1.29811">
        <ele>134</ele>
        <time>2018-12-26T13:40:45Z</time>
      </trkpt>
      <trkpt lat="44.49127" lon="1.29793">
        <ele>134</ele>
        <time>2018-12-26T13:40:55Z</time>
      </trkpt>
      <trkpt lat="44.49134" lon="1.29777">
        <ele>133</ele>
        <time>2018-12-26T13:41:05Z</time>
      </trkpt>
      <trkpt lat="44.49142" lon="1.29756">
        <ele>133</ele>
        <time>2018-12-26T13:41:18Z</time>
      </trkpt>
      <trkpt lat="44.49147" lon="1.29742">
        <ele>133</ele>
        <time>2018-12-26T13:41:26Z</time>
      </trkpt>
      <trkpt lat="44.49152" lon="1.29728">
        <ele>133</ele>
        <time>2018-12-26T13:41:36Z</time>
      </trkpt>
      <trkpt lat="44.49158" lon="1.29705">
        <ele>134</ele>
        <time>2018-12-26T13:44:33Z</time>
      </trkpt>
      <trkpt lat="44.49208" lon="1.29814">
        <ele>156</ele>
        <time>2018-12-26T13:46:17Z</time>
      </trkpt>
      <trkpt lat="44.49214" lon="1.2983">
        <ele>159</ele>
        <time>2018-12-26T13:46:29Z</time>
      </trkpt>
      <trkpt lat="44.49219" lon="1.29847">
        <ele>163</ele>
        <time>2018-12-26T13:46:44Z</time>
      </trkpt>
      <trkpt lat="44.49225" lon="1.29864">
        <ele>165</ele>
        <time>2018-12-26T13:46:57Z</time>
      </trkpt>
      <trkpt lat="44.49232" lon="1.2989">
        <ele>171</ele>
        <time>2018-12-26T13:47:19Z</time>
      </trkpt>
      <trkpt lat="44.4924" lon="1.29923">
        <ele>176</ele>
        <time>2018-12-26T13:47:42Z</time>
      </trkpt>
      <trkpt lat="44.49252" lon="1.29958">
        <ele>181</ele>
        <time>2018-12-26T13:48:07Z</time>
      </trkpt>
      <trkpt lat="44.49259" lon="1.29998">
        <ele>185</ele>
        <time>2018-12-26T13:48:32Z</time>
      </trkpt>
      <trkpt lat="44.49264" lon="1.30003">
        <ele>189</ele>
        <time>2018-12-26T13:48:46Z</time>
      </trkpt>
      <trkpt lat="44.4927" lon="1.29992">
        <ele>191</ele>
        <time>2018-12-26T13:48:59Z</time>
      </trkpt>
      <trkpt lat="44.49279" lon="1.2998">
        <ele>195</ele>
        <time>2018-12-26T13:49:11Z</time>
      </trkpt>
      <trkpt lat="44.49286" lon="1.29967">
        <ele>197</ele>
        <time>2018-12-26T13:49:22Z</time>
      </trkpt>
      <trkpt lat="44.49296" lon="1.29949">
        <ele>199</ele>
        <time>2018-12-26T13:49:33Z</time>
      </trkpt>
      <trkpt lat="44.49305" lon="1.2994">
        <ele>202</ele>
        <time>2018-12-26T13:49:45Z</time>
      </trkpt>
      <trkpt lat="44.49313" lon="1.29929">
        <ele>205</ele>
        <time>2018-12-26T13:49:56Z</time>
      </trkpt>
      <trkpt lat="44.49323" lon="1.29919">
        <ele>208</ele>
        <time>2018-12-26T13:50:07Z</time>
      </trkpt>
      <trkpt lat="44.49333" lon="1.29909">
        <ele>210</ele>
        <time>2018-12-26T13:50:17Z</time>
      </trkpt>
      <trkpt lat="44.49344" lon="1.29897">
        <ele>213</ele>
        <time>2018-12-26T13:50:31Z</time>
      </trkpt>
      <trkpt lat="44.49354" lon="1.29889">
        <ele>215</ele>
        <time>2018-12-26T13:50:42Z</time>
      </trkpt>
      <trkpt lat="44.49365" lon="1.29877">
        <ele>218</ele>
        <time>2018-12-26T13:50:54Z</time>
      </trkpt>
      <trkpt lat="44.49374" lon="1.29868">
        <ele>220</ele>
        <time>2018-12-26T13:51:05Z</time>
      </trkpt>
      <trkpt lat="44.49382" lon="1.29856">
        <ele>222</ele>
        <time>2018-12-26T13:51:15Z</time>
      </trkpt>
      <trkpt lat="44.49391" lon="1.29844">
        <ele>225</ele>
        <time>2018-12-26T13:51:25Z</time>
      </trkpt>
      <trkpt lat="44.494" lon="1.29834">
        <ele>227</ele>
        <time>2018-12-26T13:51:37Z</time>
      </trkpt>
      <trkpt lat="44.49408" lon="1.29823">
        <ele>230</ele>
        <time>2018-12-26T13:51:49Z</time>
      </trkpt>
      <trkpt lat="44.49417" lon="1.29806">
        <ele>233</ele>
        <time>2018-12-26T13:52:01Z</time>
      </trkpt>
      <trkpt lat="44.49423" lon="1.29789">
        <ele>235</ele>
        <time>2018-12-26T13:52:12Z</time>
      </trkpt>
      <trkpt lat="44.49428" lon="1.29772">
        <ele>238</ele>
        <time>2018-12-26T13:52:24Z</time>
      </trkpt>
      <trkpt lat="44.49437" lon="1.29761">
        <ele>240</ele>
        <time>2018-12-26T13:52:36Z</time>
      </trkpt>
      <trkpt lat="44.49447" lon="1.29755">
        <ele>243</ele>
        <time>2018-12-26T13:52:48Z</time>
      </trkpt>
      <trkpt lat="44.49452" lon="1.29736">
        <ele>244</ele>
        <time>2018-12-26T13:59:33Z</time>
      </trkpt>
      <trkpt lat="44.49457" lon="1.2972">
        <ele>248</ele>
        <time>2018-12-26T13:59:50Z</time>
      </trkpt>
      <trkpt lat="44.49462" lon="1.29703">
        <ele>251</ele>
        <time>2018-12-26T14:00:06Z</time>
      </trkpt>
      <trkpt lat="44.49462" lon="1.29685">
        <ele>253</ele>
        <time>2018-12-26T14:00:18Z</time>
      </trkpt>
      <trkpt lat="44.49462" lon="1.29667">
        <ele>257</ele>
        <time>2018-12-26T14:00:31Z</time>
      </trkpt>
      <trkpt lat="44.49468" lon="1.29652">
        <ele>259</ele>
        <time>2018-12-26T14:00:42Z</time>
      </trkpt>
      <trkpt lat="44.49478" lon="1.29644">
        <ele>262</ele>
        <time>2018-12-26T14:00:52Z</time>
      </trkpt>
      <trkpt lat="44.4948" lon="1.29628">
        <ele>264</ele>
        <time>2018-12-26T14:01:04Z</time>
      </trkpt>
      <trkpt lat="44.4948" lon="1.2961">
        <ele>265</ele>
        <time>2018-12-26T14:01:14Z</time>
      </trkpt>
      <trkpt lat="44.49479" lon="1.29594">
        <ele>267</ele>
        <time>2018-12-26T14:01:24Z</time>
      </trkpt>
      <trkpt lat="44.49477" lon="1.29574">
        <ele>268</ele>
        <time>2018-12-26T14:01:37Z</time>
      </trkpt>
      <trkpt lat="44.49475" lon="1.29558">
        <ele>268</ele>
        <time>2018-12-26T14:01:48Z</time>
      </trkpt>
      <trkpt lat="44.49473" lon="1.29542">
        <ele>269</ele>
        <time>2018-12-26T14:01:58Z</time>
      </trkpt>
      <trkpt lat="44.49471" lon="1.29517">
        <ele>269</ele>
        <time>2018-12-26T14:02:13Z</time>
      </trkpt>
      <trkpt lat="44.49471" lon="1.29492">
        <ele>267</ele>
        <time>2018-12-26T14:02:24Z</time>
      </trkpt>
      <trkpt lat="44.49471" lon="1.29469">
        <ele>266</ele>
        <time>2018-12-26T14:02:39Z</time>
      </trkpt>
      <trkpt lat="44.49471" lon="1.29438">
        <ele>266</ele>
        <time>2018-12-26T14:02:49Z</time>
      </trkpt>
      <trkpt lat="44.4947" lon="1.29414">
        <ele>264</ele>
        <time>2018-12-26T14:02:58Z</time>
      </trkpt>
      <trkpt lat="44.49468" lon="1.29357">
        <ele>263</ele>
        <time>2018-12-26T14:03:23Z</time>
      </trkpt>
      <trkpt lat="44.49468" lon="1.29319">
        <ele>262</ele>
        <time>2018-12-26T14:03:43Z</time>
      </trkpt>
      <trkpt lat="44.49469" lon="1.29288">
        <ele>260</ele>
        <time>2018-12-26T14:03:56Z</time>
      </trkpt>
      <trkpt lat="44.4947" lon="1.29259">
        <ele>259</ele>
        <time>2018-12-26T14:04:09Z</time>
      </trkpt>
      <trkpt lat="44.49477" lon="1.29244">
        <ele>259</ele>
        <time>2018-12-26T14:04:17Z</time>
      </trkpt>
      <trkpt lat="44.49486" lon="1.29228">
        <ele>261</ele>
        <time>2018-12-26T14:04:27Z</time>
      </trkpt>
      <trkpt lat="44.49497" lon="1.29213">
        <ele>262</ele>
        <time>2018-12-26T14:04:39Z</time>
      </trkpt>
      <trkpt lat="44.4951" lon="1.29202">
        <ele>263</ele>
        <time>2018-12-26T14:04:52Z</time>
      </trkpt>
      <trkpt lat="44.49521" lon="1.29189">
        <ele>264</ele>
        <time>2018-12-26T14:05:03Z</time>
      </trkpt>
      <trkpt lat="44.49535" lon="1.29188">
        <ele>264</ele>
        <time>2018-12-26T14:05:27Z</time>
      </trkpt>
      <trkpt lat="44.49588" lon="1.29203">
        <ele>271</ele>
        <time>2018-12-26T14:06:12Z</time>
      </trkpt>
      <trkpt lat="44.49617" lon="1.29188">
        <ele>273</ele>
        <time>2018-12-26T14:07:13Z</time>
      </trkpt>
      <trkpt lat="44.49624" lon="1.29169">
        <ele>273</ele>
        <time>2018-12-26T14:07:46Z</time>
      </trkpt>
      <trkpt lat="44.49627" lon="1.29152">
        <ele>274</ele>
        <time>2018-12-26T14:07:59Z</time>
      </trkpt>
      <trkpt lat="44.49634" lon="1.29127">
        <ele>274</ele>
        <time>2018-12-26T14:08:35Z</time>
      </trkpt>
      <trkpt lat="44.4964" lon="1.2911">
        <ele>275</ele>
        <time>2018-12-26T14:08:57Z</time>
      </trkpt>
      <trkpt lat="44.49648" lon="1.291">
        <ele>276</ele>
        <time>2018-12-26T14:09:07Z</time>
      </trkpt>
      <trkpt lat="44.49653" lon="1.29084">
        <ele>276</ele>
        <time>2018-12-26T14:09:18Z</time>
      </trkpt>
      <trkpt lat="44.49666" lon="1.29067">
        <ele>277</ele>
        <time>2018-12-26T14:10:04Z</time>
      </trkpt>
      <trkpt lat="44.49678" lon="1.29076">
        <ele>277</ele>
        <time>2018-12-26T14:10:22Z</time>
      </trkpt>
      <trkpt lat="44.49694" lon="1.29092">
        <ele>277</ele>
        <time>2018-12-26T14:10:39Z</time>
      </trkpt>
      <trkpt lat="44.49708" lon="1.29101">
        <ele>277</ele>
        <time>2018-12-26T14:10:53Z</time>
      </trkpt>
      <trkpt lat="44.49725" lon="1.29114">
        <ele>276</ele>
        <time>2018-12-26T14:11:04Z</time>
      </trkpt>
      <trkpt lat="44.4974" lon="1.2912">
        <ele>275</ele>
        <time>2018-12-26T14:11:19Z</time>
      </trkpt>
      <trkpt lat="44.49752" lon="1.29126">
        <ele>277</ele>
        <time>2018-12-26T14:11:32Z</time>
      </trkpt>
      <trkpt lat="44.49771" lon="1.29134">
        <ele>279</ele>
        <time>2018-12-26T14:11:49Z</time>
      </trkpt>
      <trkpt lat="44.49784" lon="1.29136">
        <ele>280</ele>
        <time>2018-12-26T14:11:59Z</time>
      </trkpt>
      <trkpt lat="44.49801" lon="1.2914">
        <ele>282</ele>
        <time>2018-12-26T14:12:12Z</time>
      </trkpt>
      <trkpt lat="44.49821" lon="1.29144">
        <ele>283</ele>
        <time>2018-12-26T14:12:29Z</time>
      </trkpt>
      <trkpt lat="44.49839" lon="1.29145">
        <ele>285</ele>
        <time>2018-12-26T14:12:42Z</time>
      </trkpt>
      <trkpt lat="44.49875" lon="1.29143">
        <ele>286</ele>
        <time>2018-12-26T14:13:07Z</time>
      </trkpt>
      <trkpt lat="44.49895" lon="1.2914">
        <ele>286</ele>
        <time>2018-12-26T14:13:20Z</time>
      </trkpt>
      <trkpt lat="44.49908" lon="1.29135">
        <ele>285</ele>
        <time>2018-12-26T14:13:30Z</time>
      </trkpt>
      <trkpt lat="44.49919" lon="1.29131">
        <ele>285</ele>
        <time>2018-12-26T14:13:39Z</time>
      </trkpt>
      <trkpt lat="44.4993" lon="1.29125">
        <ele>285</ele>
        <time>2018-12-26T14:13:48Z</time>
      </trkpt>
      <trkpt lat="44.49941" lon="1.2912">
        <ele>285</ele>
        <time>2018-12-26T14:13:58Z</time>
      </trkpt>
      <trkpt lat="44.49953" lon="1.29117">
        <ele>286</ele>
        <time>2018-12-26T14:14:09Z</time>
      </trkpt>
      <trkpt lat="44.49975" lon="1.29103">
        <ele>286</ele>
        <time>2018-12-26T14:14:52Z</time>
      </trkpt>
      <trkpt lat="44.49984" lon="1.29102">
        <ele>288</ele>
        <time>2018-12-26T14:15:04Z</time>
      </trkpt>
      <trkpt lat="44.49996" lon="1.29102">
        <ele>289</ele>
        <time>2018-12-26T14:15:17Z</time>
      </trkpt>
      <trkpt lat="44.5001" lon="1.29102">
        <ele>289</ele>
        <time>2018-12-26T14:15:31Z</time>
      </trkpt>
      <trkpt lat="44.50025" lon="1.29105">
        <ele>290</ele>
        <time>2018-12-26T14:15:46Z</time>
      </trkpt>
      <trkpt lat="44.5005" lon="1.29106">
        <ele>292</ele>
        <time>2018-12-26T14:16:04Z</time>
      </trkpt>
      <trkpt lat="44.50065" lon="1.29102">
        <ele>293</ele>
        <time>2018-12-26T14:16:14Z</time>
      </trkpt>
      <trkpt lat="44.50086" lon="1.29094">
        <ele>296</ele>
        <time>2018-12-26T14:16:27Z</time>
      </trkpt>
      <trkpt lat="44.50107" lon="1.29081">
        <ele>296</ele>
        <time>2018-12-26T14:16:39Z</time>
      </trkpt>
      <trkpt lat="44.50137" lon="1.29075">
        <ele>293</ele>
        <time>2018-12-26T14:17:04Z</time>
      </trkpt>
      <trkpt lat="44.50166" lon="1.29067">
        <ele>292</ele>
        <time>2018-12-26T14:17:21Z</time>
      </trkpt>
      <trkpt lat="44.50192" lon="1.29055">
        <ele>290</ele>
        <time>2018-12-26T14:17:38Z</time>
      </trkpt>
      <trkpt lat="44.50206" lon="1.29043">
        <ele>289</ele>
        <time>2018-12-26T14:17:52Z</time>
      </trkpt>
      <trkpt lat="44.50223" lon="1.29029">
        <ele>289</ele>
        <time>2018-12-26T14:18:02Z</time>
      </trkpt>
      <trkpt lat="44.50239" lon="1.29014">
        <ele>289</ele>
        <time>2018-12-26T14:18:12Z</time>
      </trkpt>
      <trkpt lat="44.50252" lon="1.28994">
        <ele>290</ele>
        <time>2018-12-26T14:18:23Z</time>
      </trkpt>
      <trkpt lat="44.50252" lon="1.28975">
        <ele>290</ele>
        <time>2018-12-26T14:18:32Z</time>
      </trkpt>
      <trkpt lat="44.50251" lon="1.2896">
        <ele>291</ele>
        <time>2018-12-26T14:18:41Z</time>
      </trkpt>
      <trkpt lat="44.50249" lon="1.28943">
        <ele>291</ele>
        <time>2018-12-26T14:18:51Z</time>
      </trkpt>
      <trkpt lat="44.50243" lon="1.2893">
        <ele>291</ele>
        <time>2018-12-26T14:19:00Z</time>
      </trkpt>
      <trkpt lat="44.50234" lon="1.28914">
        <ele>291</ele>
        <time>2018-12-26T14:19:08Z</time>
      </trkpt>
      <trkpt lat="44.50226" lon="1.28896">
        <ele>291</ele>
        <time>2018-12-26T14:19:16Z</time>
      </trkpt>
      <trkpt lat="44.50218" lon="1.28882">
        <ele>292</ele>
        <time>2018-12-26T14:19:23Z</time>
      </trkpt>
      <trkpt lat="44.50211" lon="1.28869">
        <ele>293</ele>
        <time>2018-12-26T14:19:32Z</time>
      </trkpt>
      <trkpt lat="44.50202" lon="1.28858">
        <ele>294</ele>
        <time>2018-12-26T14:19:40Z</time>
      </trkpt>
      <trkpt lat="44.50194" lon="1.28847">
        <ele>295</ele>
        <time>2018-12-26T14:19:48Z</time>
      </trkpt>
      <trkpt lat="44.50188" lon="1.28836">
        <ele>296</ele>
        <time>2018-12-26T14:19:57Z</time>
      </trkpt>
      <trkpt lat="44.50187" lon="1.28818">
        <ele>296</ele>
        <time>2018-12-26T14:20:27Z</time>
      </trkpt>
      <trkpt lat="44.50191" lon="1.28805">
        <ele>296</ele>
        <time>2018-12-26T14:20:35Z</time>
      </trkpt>
      <trkpt lat="44.50193" lon="1.28792">
        <ele>296</ele>
        <time>2018-12-26T14:20:42Z</time>
      </trkpt>
      <trkpt lat="44.50195" lon="1.28776">
        <ele>295</ele>
        <time>2018-12-26T14:20:50Z</time>
      </trkpt>
      <trkpt lat="44.50198" lon="1.28761">
        <ele>294</ele>
        <time>2018-12-26T14:20:58Z</time>
      </trkpt>
      <trkpt lat="44.50201" lon="1.28743">
        <ele>292</ele>
        <time>2018-12-26T14:21:08Z</time>
      </trkpt>
      <trkpt lat="44.50204" lon="1.28719">
        <ele>291</ele>
        <time>2018-12-26T14:21:20Z</time>
      </trkpt>
      <trkpt lat="44.50206" lon="1.28701">
        <ele>289</ele>
        <time>2018-12-26T14:21:28Z</time>
      </trkpt>
      <trkpt lat="44.50211" lon="1.28683">
        <ele>289</ele>
        <time>2018-12-26T14:21:36Z</time>
      </trkpt>
      <trkpt lat="44.50214" lon="1.28662">
        <ele>288</ele>
        <time>2018-12-26T14:21:47Z</time>
      </trkpt>
      <trkpt lat="44.50216" lon="1.28645">
        <ele>288</ele>
        <time>2018-12-26T14:21:57Z</time>
      </trkpt>
      <trkpt lat="44.50219" lon="1.2863">
        <ele>288</ele>
        <time>2018-12-26T14:22:05Z</time>
      </trkpt>
      <trkpt lat="44.50222" lon="1.28613">
        <ele>288</ele>
        <time>2018-12-26T14:22:13Z</time>
      </trkpt>
      <trkpt lat="44.50225" lon="1.28591">
        <ele>288</ele>
        <time>2018-12-26T14:22:20Z</time>
      </trkpt>
      <trkpt lat="44.50228" lon="1.28565">
        <ele>287</ele>
        <time>2018-12-26T14:22:27Z</time>
      </trkpt>
      <trkpt lat="44.50228" lon="1.28546">
        <ele>287</ele>
        <time>2018-12-26T14:22:34Z</time>
      </trkpt>
      <trkpt lat="44.50228" lon="1.28528">
        <ele>287</ele>
        <time>2018-12-26T14:22:42Z</time>
      </trkpt>
      <trkpt lat="44.50231" lon="1.28513">
        <ele>287</ele>
        <time>2018-12-26T14:22:49Z</time>
      </trkpt>
      <trkpt lat="44.50233" lon="1.28498">
        <ele>286</ele>
        <time>2018-12-26T14:22:56Z</time>
      </trkpt>
      <trkpt lat="44.50236" lon="1.28484">
        <ele>286</ele>
        <time>2018-12-26T14:23:03Z</time>
      </trkpt>
      <trkpt lat="44.50239" lon="1.2847">
        <ele>286</ele>
        <time>2018-12-26T14:23:10Z</time>
      </trkpt>
      <trkpt lat="44.50242" lon="1.28456">
        <ele>286</ele>
        <time>2018-12-26T14:23:17Z</time>
      </trkpt>
      <trkpt lat="44.50244" lon="1.2844">
        <ele>287</ele>
        <time>2018-12-26T14:23:25Z</time>
      </trkpt>
      <trkpt lat="44.50245" lon="1.28424">
        <ele>287</ele>
        <time>2018-12-26T14:23:32Z</time>
      </trkpt>
      <trkpt lat="44.50247" lon="1.28409">
        <ele>287</ele>
        <time>2018-12-26T14:23:42Z</time>
      </trkpt>
      <trkpt lat="44.50257" lon="1.28399">
        <ele>287</ele>
        <time>2018-12-26T14:23:54Z</time>
      </trkpt>
      <trkpt lat="44.50267" lon="1.28397">
        <ele>287</ele>
        <time>2018-12-26T14:24:05Z</time>
      </trkpt>
      <trkpt lat="44.50278" lon="1.28395">
        <ele>287</ele>
        <time>2018-12-26T14:24:14Z</time>
      </trkpt>
      <trkpt lat="44.5029" lon="1.28395">
        <ele>287</ele>
        <time>2018-12-26T14:24:24Z</time>
      </trkpt>
      <trkpt lat="44.50302" lon="1.28397">
        <ele>285</ele>
        <time>2018-12-26T14:24:34Z</time>
      </trkpt>
      <trkpt lat="44.50316" lon="1.28397">
        <ele>285</ele>
        <time>2018-12-26T14:24:45Z</time>
      </trkpt>
      <trkpt lat="44.50371" lon="1.2839">
        <ele>282</ele>
        <time>2018-12-26T14:25:25Z</time>
      </trkpt>
      <trkpt lat="44.50396" lon="1.2839">
        <ele>283</ele>
        <time>2018-12-26T14:25:42Z</time>
      </trkpt>
      <trkpt lat="44.50435" lon="1.28371">
        <ele>285</ele>
        <time>2018-12-26T14:27:19Z</time>
      </trkpt>
      <trkpt lat="44.50448" lon="1.28362">
        <ele>286</ele>
        <time>2018-12-26T14:27:32Z</time>
      </trkpt>
      <trkpt lat="44.5046" lon="1.28349">
        <ele>287</ele>
        <time>2018-12-26T14:27:43Z</time>
      </trkpt>
      <trkpt lat="44.50464" lon="1.28325">
        <ele>288</ele>
        <time>2018-12-26T14:27:57Z</time>
      </trkpt>
      <trkpt lat="44.50461" lon="1.28306">
        <ele>289</ele>
        <time>2018-12-26T14:28:10Z</time>
      </trkpt>
      <trkpt lat="44.50455" lon="1.2829">
        <ele>290</ele>
        <time>2018-12-26T14:28:21Z</time>
      </trkpt>
      <trkpt lat="44.50448" lon="1.28274">
        <ele>291</ele>
        <time>2018-12-26T14:28:31Z</time>
      </trkpt>
      <trkpt lat="44.50445" lon="1.28212">
        <ele>292</ele>
        <time>2018-12-26T14:30:08Z</time>
      </trkpt>
      <trkpt lat="44.50438" lon="1.28198">
        <ele>292</ele>
        <time>2018-12-26T14:30:20Z</time>
      </trkpt>
      <trkpt lat="44.50428" lon="1.28185">
        <ele>293</ele>
        <time>2018-12-26T14:30:33Z</time>
      </trkpt>
      <trkpt lat="44.50416" lon="1.28171">
        <ele>294</ele>
        <time>2018-12-26T14:30:48Z</time>
      </trkpt>
      <trkpt lat="44.50403" lon="1.28158">
        <ele>295</ele>
        <time>2018-12-26T14:31:01Z</time>
      </trkpt>
      <trkpt lat="44.50393" lon="1.28138">
        <ele>297</ele>
        <time>2018-12-26T14:31:21Z</time>
      </trkpt>
      <trkpt lat="44.50392" lon="1.28106">
        <ele>297</ele>
        <time>2018-12-26T14:31:47Z</time>
      </trkpt>
      <trkpt lat="44.504" lon="1.28081">
        <ele>297</ele>
        <time>2018-12-26T14:32:04Z</time>
      </trkpt>
      <trkpt lat="44.50404" lon="1.28064">
        <ele>297</ele>
        <time>2018-12-26T14:32:14Z</time>
      </trkpt>
      <trkpt lat="44.50413" lon="1.28047">
        <ele>297</ele>
        <time>2018-12-26T14:32:26Z</time>
      </trkpt>
      <trkpt lat="44.50419" lon="1.28027">
        <ele>296</ele>
        <time>2018-12-26T14:32:36Z</time>
      </trkpt>
      <trkpt lat="44.50428" lon="1.28005">
        <ele>296</ele>
        <time>2018-12-26T14:32:50Z</time>
      </trkpt>
      <trkpt lat="44.50435" lon="1.27987">
        <ele>298</ele>
        <time>2018-12-26T14:33:01Z</time>
      </trkpt>
      <trkpt lat="44.50443" lon="1.27968">
        <ele>299</ele>
        <time>2018-12-26T14:33:13Z</time>
      </trkpt>
      <trkpt lat="44.50443" lon="1.27949">
        <ele>300</ele>
        <time>2018-12-26T14:33:29Z</time>
      </trkpt>
      <trkpt lat="44.50438" lon="1.27909">
        <ele>297</ele>
        <time>2018-12-26T14:33:52Z</time>
      </trkpt>
      <trkpt lat="44.50437" lon="1.27858">
        <ele>296</ele>
        <time>2018-12-26T14:34:13Z</time>
      </trkpt>
      <trkpt lat="44.50436" lon="1.27836">
        <ele>295</ele>
        <time>2018-12-26T14:34:24Z</time>
      </trkpt>
      <trkpt lat="44.50438" lon="1.27814">
        <ele>295</ele>
        <time>2018-12-26T14:34:34Z</time>
      </trkpt>
      <trkpt lat="44.5044" lon="1.27792">
        <ele>295</ele>
        <time>2018-12-26T14:34:46Z</time>
      </trkpt>
      <trkpt lat="44.50442" lon="1.27771">
        <ele>294</ele>
        <time>2018-12-26T14:34:58Z</time>
      </trkpt>
      <trkpt lat="44.50443" lon="1.27744">
        <ele>294</ele>
        <time>2018-12-26T14:35:19Z</time>
      </trkpt>
      <trkpt lat="44.50438" lon="1.27724">
        <ele>294</ele>
        <time>2018-12-26T14:35:36Z</time>
      </trkpt>
      <trkpt lat="44.50429" lon="1.2772">
        <ele>294</ele>
        <time>2018-12-26T14:35:46Z</time>
      </trkpt>
      <trkpt lat="44.50419" lon="1.2772">
        <ele>292</ele>
        <time>2018-12-26T14:35:57Z</time>
      </trkpt>
      <trkpt lat="44.50408" lon="1.27723">
        <ele>292</ele>
        <time>2018-12-26T14:36:07Z</time>
      </trkpt>
      <trkpt lat="44.50396" lon="1.27726">
        <ele>290</ele>
        <time>2018-12-26T14:36:16Z</time>
      </trkpt>
      <trkpt lat="44.50384" lon="1.27727">
        <ele>290</ele>
        <time>2018-12-26T14:36:27Z</time>
      </trkpt>
      <trkpt lat="44.50372" lon="1.27729">
        <ele>289</ele>
        <time>2018-12-26T14:36:35Z</time>
      </trkpt>
      <trkpt lat="44.50362" lon="1.27731">
        <ele>288</ele>
        <time>2018-12-26T14:36:42Z</time>
      </trkpt>
      <trkpt lat="44.5035" lon="1.27733">
        <ele>287</ele>
        <time>2018-12-26T14:36:51Z</time>
      </trkpt>
      <trkpt lat="44.50338" lon="1.27735">
        <ele>286</ele>
        <time>2018-12-26T14:37:01Z</time>
      </trkpt>
      <trkpt lat="44.50327" lon="1.27735">
        <ele>285</ele>
        <time>2018-12-26T14:37:09Z</time>
      </trkpt>
      <trkpt lat="44.50314" lon="1.27734">
        <ele>285</ele>
        <time>2018-12-26T14:37:18Z</time>
      </trkpt>
      <trkpt lat="44.50299" lon="1.27736">
        <ele>285</ele>
        <time>2018-12-26T14:37:26Z</time>
      </trkpt>
      <trkpt lat="44.50285" lon="1.27734">
        <ele>284</ele>
        <time>2018-12-26T14:37:34Z</time>
      </trkpt>
      <trkpt lat="44.50268" lon="1.27733">
        <ele>284</ele>
        <time>2018-12-26T14:37:46Z</time>
      </trkpt>
      <trkpt lat="44.50253" lon="1.27733">
        <ele>284</ele>
        <time>2018-12-26T14:37:57Z</time>
      </trkpt>
      <trkpt lat="44.50243" lon="1.27731">
        <ele>284</ele>
        <time>2018-12-26T14:38:06Z</time>
      </trkpt>
      <trkpt lat="44.50226" lon="1.27731">
        <ele>283</ele>
        <time>2018-12-26T14:38:15Z</time>
      </trkpt>
      <trkpt lat="44.50212" lon="1.27732">
        <ele>283</ele>
        <time>2018-12-26T14:38:23Z</time>
      </trkpt>
      <trkpt lat="44.50199" lon="1.27733">
        <ele>282</ele>
        <time>2018-12-26T14:38:31Z</time>
      </trkpt>
      <trkpt lat="44.50188" lon="1.27736">
        <ele>281</ele>
        <time>2018-12-26T14:38:39Z</time>
      </trkpt>
      <trkpt lat="44.50176" lon="1.2774">
        <ele>280</ele>
        <time>2018-12-26T14:38:48Z</time>
      </trkpt>
      <trkpt lat="44.50165" lon="1.27743">
        <ele>279</ele>
        <time>2018-12-26T14:38:56Z</time>
      </trkpt>
      <trkpt lat="44.50153" lon="1.27744">
        <ele>278</ele>
        <time>2018-12-26T14:39:05Z</time>
      </trkpt>
      <trkpt lat="44.5014" lon="1.27745">
        <ele>278</ele>
        <time>2018-12-26T14:39:16Z</time>
      </trkpt>
      <trkpt lat="44.50127" lon="1.27745">
        <ele>278</ele>
        <time>2018-12-26T14:39:26Z</time>
      </trkpt>
      <trkpt lat="44.50111" lon="1.27747">
        <ele>277</ele>
        <time>2018-12-26T14:39:37Z</time>
      </trkpt>
      <trkpt lat="44.50095" lon="1.27745">
        <ele>277</ele>
        <time>2018-12-26T14:39:46Z</time>
      </trkpt>
      <trkpt lat="44.50084" lon="1.2774">
        <ele>277</ele>
        <time>2018-12-26T14:39:57Z</time>
      </trkpt>
      <trkpt lat="44.5007" lon="1.27731">
        <ele>277</ele>
        <time>2018-12-26T14:40:08Z</time>
      </trkpt>
      <trkpt lat="44.50057" lon="1.27725">
        <ele>277</ele>
        <time>2018-12-26T14:40:18Z</time>
      </trkpt>
      <trkpt lat="44.50044" lon="1.27719">
        <ele>278</ele>
        <time>2018-12-26T14:40:29Z</time>
      </trkpt>
      <trkpt lat="44.5003" lon="1.2772">
        <ele>280</ele>
        <time>2018-12-26T14:40:37Z</time>
      </trkpt>
      <trkpt lat="44.50013" lon="1.27724">
        <ele>281</ele>
        <time>2018-12-26T14:40:49Z</time>
      </trkpt>
      <trkpt lat="44.49997" lon="1.2773">
        <ele>282</ele>
        <time>2018-12-26T14:40:59Z</time>
      </trkpt>
      <trkpt lat="44.49987" lon="1.27736">
        <ele>283</ele>
        <time>2018-12-26T14:41:07Z</time>
      </trkpt>
      <trkpt lat="44.49975" lon="1.27744">
        <ele>284</ele>
        <time>2018-12-26T14:41:16Z</time>
      </trkpt>
      <trkpt lat="44.49963" lon="1.27751">
        <ele>285</ele>
        <time>2018-12-26T14:41:24Z</time>
      </trkpt>
      <trkpt lat="44.49951" lon="1.27755">
        <ele>285</ele>
        <time>2018-12-26T14:41:37Z</time>
      </trkpt>
      <trkpt lat="44.49939" lon="1.27757">
        <ele>286</ele>
        <time>2018-12-26T14:41:47Z</time>
      </trkpt>
      <trkpt lat="44.49929" lon="1.27761">
        <ele>287</ele>
        <time>2018-12-26T14:41:55Z</time>
      </trkpt>
      <trkpt lat="44.49917" lon="1.27764">
        <ele>287</ele>
        <time>2018-12-26T14:42:06Z</time>
      </trkpt>
      <trkpt lat="44.49903" lon="1.27766">
        <ele>288</ele>
        <time>2018-12-26T14:42:20Z</time>
      </trkpt>
      <trkpt lat="44.4989" lon="1.27771">
        <ele>288</ele>
        <time>2018-12-26T14:42:30Z</time>
      </trkpt>
      <trkpt lat="44.49861" lon="1.27787">
        <ele>286</ele>
        <time>2018-12-26T14:42:53Z</time>
      </trkpt>
      <trkpt lat="44.49831" lon="1.27824">
        <ele>286</ele>
        <time>2018-12-26T14:43:26Z</time>
      </trkpt>
      <trkpt lat="44.49805" lon="1.27868">
        <ele>287</ele>
        <time>2018-12-26T14:43:58Z</time>
      </trkpt>
      <trkpt lat="44.49736" lon="1.27926">
        <ele>285</ele>
        <time>2018-12-26T14:44:44Z</time>
      </trkpt>
      <trkpt lat="44.49722" lon="1.27943">
        <ele>285</ele>
        <time>2018-12-26T14:44:55Z</time>
      </trkpt>
      <trkpt lat="44.49711" lon="1.27962">
        <ele>287</ele>
        <time>2018-12-26T14:45:05Z</time>
      </trkpt>
      <trkpt lat="44.49701" lon="1.27986">
        <ele>287</ele>
        <time>2018-12-26T14:45:14Z</time>
      </trkpt>
      <trkpt lat="44.49693" lon="1.28007">
        <ele>288</ele>
        <time>2018-12-26T14:45:24Z</time>
      </trkpt>
      <trkpt lat="44.49675" lon="1.28037">
        <ele>287</ele>
        <time>2018-12-26T14:47:28Z</time>
      </trkpt>
      <trkpt lat="44.49665" lon="1.28043">
        <ele>288</ele>
        <time>2018-12-26T14:47:43Z</time>
      </trkpt>
      <trkpt lat="44.49651" lon="1.28052">
        <ele>288</ele>
        <time>2018-12-26T14:47:54Z</time>
      </trkpt>
      <trkpt lat="44.49637" lon="1.28059">
        <ele>289</ele>
        <time>2018-12-26T14:48:04Z</time>
      </trkpt>
      <trkpt lat="44.49622" lon="1.28072">
        <ele>289</ele>
        <time>2018-12-26T14:48:17Z</time>
      </trkpt>
      <trkpt lat="44.49605" lon="1.28087">
        <ele>290</ele>
        <time>2018-12-26T14:48:32Z</time>
      </trkpt>
      <trkpt lat="44.49591" lon="1.28099">
        <ele>290</ele>
        <time>2018-12-26T14:48:45Z</time>
      </trkpt>
      <trkpt lat="44.49577" lon="1.2812">
        <ele>288</ele>
        <time>2018-12-26T14:49:06Z</time>
      </trkpt>
      <trkpt lat="44.49549" lon="1.28174">
        <ele>288</ele>
        <time>2018-12-26T14:49:42Z</time>
      </trkpt>
      <trkpt lat="44.49534" lon="1.28194">
        <ele>287</ele>
        <time>2018-12-26T14:49:54Z</time>
      </trkpt>
      <trkpt lat="44.49504" lon="1.28221">
        <ele>284</ele>
        <time>2018-12-26T14:50:20Z</time>
      </trkpt>
      <trkpt lat="44.49477" lon="1.28229">
        <ele>283</ele>
        <time>2018-12-26T14:50:32Z</time>
      </trkpt>
      <trkpt lat="44.49459" lon="1.28242">
        <ele>281</ele>
        <time>2018-12-26T14:50:42Z</time>
      </trkpt>
      <trkpt lat="44.49444" lon="1.28248">
        <ele>279</ele>
        <time>2018-12-26T14:50:51Z</time>
      </trkpt>
      <trkpt lat="44.49421" lon="1.28257">
        <ele>279</ele>
        <time>2018-12-26T14:50:58Z</time>
      </trkpt>
      <trkpt lat="44.49401" lon="1.28265">
        <ele>279</ele>
        <time>2018-12-26T14:51:06Z</time>
      </trkpt>
      <trkpt lat="44.49388" lon="1.28272">
        <ele>279</ele>
        <time>2018-12-26T14:51:18Z</time>
      </trkpt>
      <trkpt lat="44.4938" lon="1.28289">
        <ele>278</ele>
        <time>2018-12-26T14:51:48Z</time>
      </trkpt>
      <trkpt lat="44.49372" lon="1.28294">
        <ele>278</ele>
        <time>2018-12-26T14:51:57Z</time>
      </trkpt>
      <trkpt lat="44.49363" lon="1.28301">
        <ele>278</ele>
        <time>2018-12-26T14:52:06Z</time>
      </trkpt>
      <trkpt lat="44.49352" lon="1.28308">
        <ele>278</ele>
        <time>2018-12-26T14:52:13Z</time>
      </trkpt>
      <trkpt lat="44.49341" lon="1.28314">
        <ele>280</ele>
        <time>2018-12-26T14:52:20Z</time>
      </trkpt>
      <trkpt lat="44.49332" lon="1.28321">
        <ele>280</ele>
        <time>2018-12-26T14:52:27Z</time>
      </trkpt>
      <trkpt lat="44.49322" lon="1.28328">
        <ele>280</ele>
        <time>2018-12-26T14:52:36Z</time>
      </trkpt>
      <trkpt lat="44.49312" lon="1.28335">
        <ele>280</ele>
        <time>2018-12-26T14:52:47Z</time>
      </trkpt>
      <trkpt lat="44.49298" lon="1.28341">
        <ele>281</ele>
        <time>2018-12-26T14:52:59Z</time>
      </trkpt>
      <trkpt lat="44.49285" lon="1.28349">
        <ele>281</ele>
        <time>2018-12-26T14:53:10Z</time>
      </trkpt>
      <trkpt lat="44.49268" lon="1.28358">
        <ele>282</ele>
        <time>2018-12-26T14:53:20Z</time>
      </trkpt>
      <trkpt lat="44.49252" lon="1.28368">
        <ele>283</ele>
        <time>2018-12-26T14:53:30Z</time>
      </trkpt>
      <trkpt lat="44.49234" lon="1.28376">
        <ele>281</ele>
        <time>2018-12-26T14:53:40Z</time>
      </trkpt>
      <trkpt lat="44.49218" lon="1.2838">
        <ele>280</ele>
        <time>2018-12-26T14:53:48Z</time>
      </trkpt>
      <trkpt lat="44.49203" lon="1.28386">
        <ele>279</ele>
        <time>2018-12-26T14:53:56Z</time>
      </trkpt>
      <trkpt lat="44.49192" lon="1.28395">
        <ele>277</ele>
        <time>2018-12-26T14:54:03Z</time>
      </trkpt>
      <trkpt lat="44.49182" lon="1.28403">
        <ele>276</ele>
        <time>2018-12-26T14:54:09Z</time>
      </trkpt>
      <trkpt lat="44.49171" lon="1.28413">
        <ele>274</ele>
        <time>2018-12-26T14:54:15Z</time>
      </trkpt>
      <trkpt lat="44.49163" lon="1.28421">
        <ele>274</ele>
        <time>2018-12-26T14:54:21Z</time>
      </trkpt>
      <trkpt lat="44.49154" lon="1.2843">
        <ele>273</ele>
        <time>2018-12-26T14:54:30Z</time>
      </trkpt>
      <trkpt lat="44.49143" lon="1.28437">
        <ele>273</ele>
        <time>2018-12-26T14:54:37Z</time>
      </trkpt>
      <trkpt lat="44.49134" lon="1.28447">
        <ele>271</ele>
        <time>2018-12-26T14:54:44Z</time>
      </trkpt>
      <trkpt lat="44.49125" lon="1.28455">
        <ele>269</ele>
        <time>2018-12-26T14:54:50Z</time>
      </trkpt>
      <trkpt lat="44.49116" lon="1.28461">
        <ele>269</ele>
        <time>2018-12-26T14:54:56Z</time>
      </trkpt>
      <trkpt lat="44.49107" lon="1.28466">
        <ele>268</ele>
        <time>2018-12-26T14:55:02Z</time>
      </trkpt>
      <trkpt lat="44.49097" lon="1.28471">
        <ele>267</ele>
        <time>2018-12-26T14:55:08Z</time>
      </trkpt>
      <trkpt lat="44.49088" lon="1.28477">
        <ele>265</ele>
        <time>2018-12-26T14:55:14Z</time>
      </trkpt>
      <trkpt lat="44.49079" lon="1.28479">
        <ele>265</ele>
        <time>2018-12-26T14:55:20Z</time>
      </trkpt>
      <trkpt lat="44.4907" lon="1.28485">
        <ele>264</ele>
        <time>2018-12-26T14:55:27Z</time>
      </trkpt>
      <trkpt lat="44.49062" lon="1.28493">
        <ele>267</ele>
        <time>2018-12-26T14:55:36Z</time>
      </trkpt>
      <trkpt lat="44.49051" lon="1.28496">
        <ele>268</ele>
        <time>2018-12-26T14:56:01Z</time>
      </trkpt>
      <trkpt lat="44.49042" lon="1.2849">
        <ele>268</ele>
        <time>2018-12-26T14:56:17Z</time>
      </trkpt>
      <trkpt lat="44.49032" lon="1.28488">
        <ele>271</ele>
        <time>2018-12-26T14:56:26Z</time>
      </trkpt>
      <trkpt lat="44.49022" lon="1.28485">
        <ele>271</ele>
        <time>2018-12-26T14:56:35Z</time>
      </trkpt>
      <trkpt lat="44.49014" lon="1.28477">
        <ele>271</ele>
        <time>2018-12-26T14:56:43Z</time>
      </trkpt>
      <trkpt lat="44.49003" lon="1.28472">
        <ele>271</ele>
        <time>2018-12-26T14:56:52Z</time>
      </trkpt>
      <trkpt lat="44.48993" lon="1.28466">
        <ele>271</ele>
        <time>2018-12-26T14:57:00Z</time>
      </trkpt>
      <trkpt lat="44.48982" lon="1.2846">
        <ele>270</ele>
        <time>2018-12-26T14:57:07Z</time>
      </trkpt>
      <trkpt lat="44.48972" lon="1.28456">
        <ele>270</ele>
        <time>2018-12-26T14:57:15Z</time>
      </trkpt>
      <trkpt lat="44.4897" lon="1.2846">
        <ele>270</ele>
        <time>2018-12-26T14:57:47Z</time>
      </trkpt>
      <trkpt lat="44.48982" lon="1.28467">
        <ele>272</ele>
        <time>2018-12-26T14:57:58Z</time>
      </trkpt>
      <trkpt lat="44.48994" lon="1.28473">
        <ele>270</ele>
        <time>2018-12-26T14:58:09Z</time>
      </trkpt>
      <trkpt lat="44.49002" lon="1.28475">
        <ele>272</ele>
        <time>2018-12-26T14:58:32Z</time>
      </trkpt>
      <trkpt lat="44.48994" lon="1.2847">
        <ele>271</ele>
        <time>2018-12-26T14:58:43Z</time>
      </trkpt>
      <trkpt lat="44.48984" lon="1.28463">
        <ele>270</ele>
        <time>2018-12-26T14:58:53Z</time>
      </trkpt>
      <trkpt lat="44.48974" lon="1.2846">
        <ele>270</ele>
        <time>2018-12-26T14:59:02Z</time>
      </trkpt>
      <trkpt lat="44.48963" lon="1.28453">
        <ele>270</ele>
        <time>2018-12-26T14:59:11Z</time>
      </trkpt>
      <trkpt lat="44.48951" lon="1.28446">
        <ele>270</ele>
        <time>2018-12-26T14:59:19Z</time>
      </trkpt>
      <trkpt lat="44.48938" lon="1.28442">
        <ele>269</ele>
        <time>2018-12-26T14:59:27Z</time>
      </trkpt>
      <trkpt lat="44.48925" lon="1.28439">
        <ele>269</ele>
        <time>2018-12-26T14:59:35Z</time>
      </trkpt>
      <trkpt lat="44.48908" lon="1.28435">
        <ele>268</ele>
        <time>2018-12-26T14:59:47Z</time>
      </trkpt>
      <trkpt lat="44.48893" lon="1.28432">
        <ele>268</ele>
        <time>2018-12-26T14:59:56Z</time>
      </trkpt>
      <trkpt lat="44.48877" lon="1.2843">
        <ele>266</ele>
        <time>2018-12-26T15:00:07Z</time>
      </trkpt>
      <trkpt lat="44.48863" lon="1.28424">
        <ele>264</ele>
        <time>2018-12-26T15:00:15Z</time>
      </trkpt>
      <trkpt lat="44.48851" lon="1.28419">
        <ele>264</ele>
        <time>2018-12-26T15:00:24Z</time>
      </trkpt>
      <trkpt lat="44.48837" lon="1.28421">
        <ele>261</ele>
        <time>2018-12-26T15:00:35Z</time>
      </trkpt>
      <trkpt lat="44.48821" lon="1.28418">
        <ele>261</ele>
        <time>2018-12-26T15:00:44Z</time>
      </trkpt>
      <trkpt lat="44.48804" lon="1.28416">
        <ele>261</ele>
        <time>2018-12-26T15:00:55Z</time>
      </trkpt>
      <trkpt lat="44.48794" lon="1.28414">
        <ele>261</ele>
        <time>2018-12-26T15:01:04Z</time>
      </trkpt>
      <trkpt lat="44.48776" lon="1.28413">
        <ele>262</ele>
        <time>2018-12-26T15:01:15Z</time>
      </trkpt>
      <trkpt lat="44.48763" lon="1.28408">
        <ele>260</ele>
        <time>2018-12-26T15:01:25Z</time>
      </trkpt>
      <trkpt lat="44.48748" lon="1.2841">
        <ele>260</ele>
        <time>2018-12-26T15:01:36Z</time>
      </trkpt>
      <trkpt lat="44.4873" lon="1.28403">
        <ele>262</ele>
        <time>2018-12-26T15:01:52Z</time>
      </trkpt>
      <trkpt lat="44.48706" lon="1.28392">
        <ele>260</ele>
        <time>2018-12-26T15:02:22Z</time>
      </trkpt>
      <trkpt lat="44.48697" lon="1.28393">
        <ele>259</ele>
        <time>2018-12-26T15:02:34Z</time>
      </trkpt>
      <trkpt lat="44.48684" lon="1.28392">
        <ele>257</ele>
        <time>2018-12-26T15:02:45Z</time>
      </trkpt>
      <trkpt lat="44.48667" lon="1.28393">
        <ele>255</ele>
        <time>2018-12-26T15:02:57Z</time>
      </trkpt>
      <trkpt lat="44.48649" lon="1.28387">
        <ele>254</ele>
        <time>2018-12-26T15:03:10Z</time>
      </trkpt>
      <trkpt lat="44.4864" lon="1.28382">
        <ele>255</ele>
        <time>2018-12-26T15:03:17Z</time>
      </trkpt>
      <trkpt lat="44.4863" lon="1.28377">
        <ele>255</ele>
        <time>2018-12-26T15:03:24Z</time>
      </trkpt>
      <trkpt lat="44.48616" lon="1.28374">
        <ele>257</ele>
        <time>2018-12-26T15:03:31Z</time>
      </trkpt>
      <trkpt lat="44.48603" lon="1.28369">
        <ele>258</ele>
        <time>2018-12-26T15:03:38Z</time>
      </trkpt>
      <trkpt lat="44.48593" lon="1.28362">
        <ele>259</ele>
        <time>2018-12-26T15:03:45Z</time>
      </trkpt>
      <trkpt lat="44.48583" lon="1.28358">
        <ele>261</ele>
        <time>2018-12-26T15:03:55Z</time>
      </trkpt>
      <trkpt lat="44.48564" lon="1.28345">
        <ele>258</ele>
        <time>2018-12-26T15:11:28Z</time>
      </trkpt>
      <trkpt lat="44.4855" lon="1.28334">
        <ele>260</ele>
        <time>2018-12-26T15:11:48Z</time>
      </trkpt>
      <trkpt lat="44.48546" lon="1.28321">
        <ele>258</ele>
        <time>2018-12-26T15:12:01Z</time>
      </trkpt>
      <trkpt lat="44.48544" lon="1.28309">
        <ele>257</ele>
        <time>2018-12-26T15:12:11Z</time>
      </trkpt>
      <trkpt lat="44.48545" lon="1.28294">
        <ele>254</ele>
        <time>2018-12-26T15:12:22Z</time>
      </trkpt>
      <trkpt lat="44.48548" lon="1.28279">
        <ele>252</ele>
        <time>2018-12-26T15:12:31Z</time>
      </trkpt>
      <trkpt lat="44.48555" lon="1.28263">
        <ele>251</ele>
        <time>2018-12-26T15:12:40Z</time>
      </trkpt>
      <trkpt lat="44.48563" lon="1.28254">
        <ele>250</ele>
        <time>2018-12-26T15:12:48Z</time>
      </trkpt>
      <trkpt lat="44.48572" lon="1.28244">
        <ele>248</ele>
        <time>2018-12-26T15:12:56Z</time>
      </trkpt>
      <trkpt lat="44.48582" lon="1.28237">
        <ele>247</ele>
        <time>2018-12-26T15:13:04Z</time>
      </trkpt>
      <trkpt lat="44.48593" lon="1.28234">
        <ele>246</ele>
        <time>2018-12-26T15:13:13Z</time>
      </trkpt>
      <trkpt lat="44.48605" lon="1.28238">
        <ele>245</ele>
        <time>2018-12-26T15:13:23Z</time>
      </trkpt>
      <trkpt lat="44.48616" lon="1.28244">
        <ele>243</ele>
        <time>2018-12-26T15:13:32Z</time>
      </trkpt>
      <trkpt lat="44.48625" lon="1.28251">
        <ele>242</ele>
        <time>2018-12-26T15:13:40Z</time>
      </trkpt>
      <trkpt lat="44.48634" lon="1.28258">
        <ele>241</ele>
        <time>2018-12-26T15:13:48Z</time>
      </trkpt>
      <trkpt lat="44.48644" lon="1.28263">
        <ele>240</ele>
        <time>2018-12-26T15:13:58Z</time>
      </trkpt>
      <trkpt lat="44.48656" lon="1.28265">
        <ele>239</ele>
        <time>2018-12-26T15:14:10Z</time>
      </trkpt>
      <trkpt lat="44.48671" lon="1.28266">
        <ele>238</ele>
        <time>2018-12-26T15:14:21Z</time>
      </trkpt>
      <trkpt lat="44.48683" lon="1.28259">
        <ele>236</ele>
        <time>2018-12-26T15:14:32Z</time>
      </trkpt>
      <trkpt lat="44.48695" lon="1.28255">
        <ele>236</ele>
        <time>2018-12-26T15:14:40Z</time>
      </trkpt>
      <trkpt lat="44.48709" lon="1.28252">
        <ele>235</ele>
        <time>2018-12-26T15:14:47Z</time>
      </trkpt>
      <trkpt lat="44.48723" lon="1.28247">
        <ele>233</ele>
        <time>2018-12-26T15:14:55Z</time>
      </trkpt>
      <trkpt lat="44.48734" lon="1.28246">
        <ele>232</ele>
        <time>2018-12-26T15:15:03Z</time>
      </trkpt>
      <trkpt lat="44.48748" lon="1.28244">
        <ele>230</ele>
        <time>2018-12-26T15:15:12Z</time>
      </trkpt>
      <trkpt lat="44.48752" lon="1.28238">
        <ele>228</ele>
        <time>2018-12-26T15:15:21Z</time>
      </trkpt>
      <trkpt lat="44.48752" lon="1.28228">
        <ele>227</ele>
        <time>2018-12-26T15:15:30Z</time>
      </trkpt>
      <trkpt lat="44.48746" lon="1.28223">
        <ele>225</ele>
        <time>2018-12-26T15:15:39Z</time>
      </trkpt>
      <trkpt lat="44.48734" lon="1.28222">
        <ele>225</ele>
        <time>2018-12-26T15:15:47Z</time>
      </trkpt>
      <trkpt lat="44.48722" lon="1.2822">
        <ele>223</ele>
        <time>2018-12-26T15:15:57Z</time>
      </trkpt>
      <trkpt lat="44.4871" lon="1.28216">
        <ele>221</ele>
        <time>2018-12-26T15:16:09Z</time>
      </trkpt>
      <trkpt lat="44.48698" lon="1.28209">
        <ele>220</ele>
        <time>2018-12-26T15:16:19Z</time>
      </trkpt>
      <trkpt lat="44.48694" lon="1.28196">
        <ele>219</ele>
        <time>2018-12-26T15:16:28Z</time>
      </trkpt>
      <trkpt lat="44.48694" lon="1.28184">
        <ele>217</ele>
        <time>2018-12-26T15:16:38Z</time>
      </trkpt>
      <trkpt lat="44.48691" lon="1.28169">
        <ele>216</ele>
        <time>2018-12-26T15:16:48Z</time>
      </trkpt>
      <trkpt lat="44.48686" lon="1.28151">
        <ele>215</ele>
        <time>2018-12-26T15:17:00Z</time>
      </trkpt>
      <trkpt lat="44.48686" lon="1.28136">
        <ele>213</ele>
        <time>2018-12-26T15:17:11Z</time>
      </trkpt>
      <trkpt lat="44.48689" lon="1.28117">
        <ele>212</ele>
        <time>2018-12-26T15:17:22Z</time>
      </trkpt>
      <trkpt lat="44.48691" lon="1.28094">
        <ele>211</ele>
        <time>2018-12-26T15:17:31Z</time>
      </trkpt>
      <trkpt lat="44.48687" lon="1.28072">
        <ele>209</ele>
        <time>2018-12-26T15:17:41Z</time>
      </trkpt>
      <trkpt lat="44.48689" lon="1.28047">
        <ele>209</ele>
        <time>2018-12-26T15:18:28Z</time>
      </trkpt>
      <trkpt lat="44.48694" lon="1.28059">
        <ele>208</ele>
        <time>2018-12-26T15:18:36Z</time>
      </trkpt>
      <trkpt lat="44.48697" lon="1.28074">
        <ele>207</ele>
        <time>2018-12-26T15:18:45Z</time>
      </trkpt>
      <trkpt lat="44.48699" lon="1.28089">
        <ele>206</ele>
        <time>2018-12-26T15:18:56Z</time>
      </trkpt>
      <trkpt lat="44.487" lon="1.28107">
        <ele>204</ele>
        <time>2018-12-26T15:19:06Z</time>
      </trkpt>
      <trkpt lat="44.48702" lon="1.28124">
        <ele>203</ele>
        <time>2018-12-26T15:19:18Z</time>
      </trkpt>
      <trkpt lat="44.48709" lon="1.28131">
        <ele>201</ele>
        <time>2018-12-26T15:19:34Z</time>
      </trkpt>
      <trkpt lat="44.48749" lon="1.28121">
        <ele>195</ele>
        <time>2018-12-26T15:20:20Z</time>
      </trkpt>
      <trkpt lat="44.48765" lon="1.28128">
        <ele>194</ele>
        <time>2018-12-26T15:20:32Z</time>
      </trkpt>
      <trkpt lat="44.48758" lon="1.28129">
        <ele>193</ele>
        <time>2018-12-26T15:20:43Z</time>
      </trkpt>
      <trkpt lat="44.48748" lon="1.28049">
        <ele>185</ele>
        <time>2018-12-26T15:22:02Z</time>
      </trkpt>
      <trkpt lat="44.48744" lon="1.27971">
        <ele>181</ele>
        <time>2018-12-26T15:22:33Z</time>
      </trkpt>
      <trkpt lat="44.48734" lon="1.27945">
        <ele>179</ele>
        <time>2018-12-26T15:22:48Z</time>
      </trkpt>
      <trkpt lat="44.48717" lon="1.27919">
        <ele>177</ele>
        <time>2018-12-26T15:23:06Z</time>
      </trkpt>
      <trkpt lat="44.48696" lon="1.2791">
        <ele>174</ele>
        <time>2018-12-26T15:23:23Z</time>
      </trkpt>
      <trkpt lat="44.48702" lon="1.27901">
        <ele>173</ele>
        <time>2018-12-26T15:23:37Z</time>
      </trkpt>
      <trkpt lat="44.48713" lon="1.279">
        <ele>172</ele>
        <time>2018-12-26T15:23:48Z</time>
      </trkpt>
      <trkpt lat="44.4873" lon="1.27905">
        <ele>170</ele>
        <time>2018-12-26T15:24:04Z</time>
      </trkpt>
      <trkpt lat="44.48714" lon="1.27889">
        <ele>165</ele>
        <time>2018-12-26T15:24:41Z</time>
      </trkpt>
      <trkpt lat="44.48701" lon="1.27887">
        <ele>163</ele>
        <time>2018-12-26T15:24:52Z</time>
      </trkpt>
      <trkpt lat="44.48694" lon="1.27878">
        <ele>161</ele>
        <time>2018-12-26T15:25:04Z</time>
      </trkpt>
      <trkpt lat="44.48702" lon="1.27872">
        <ele>161</ele>
        <time>2018-12-26T15:25:13Z</time>
      </trkpt>
      <trkpt lat="44.48711" lon="1.27866">
        <ele>159</ele>
        <time>2018-12-26T15:25:23Z</time>
      </trkpt>
      <trkpt lat="44.48754" lon="1.2786">
        <ele>156</ele>
        <time>2018-12-26T15:26:22Z</time>
      </trkpt>
      <trkpt lat="44.48753" lon="1.27856">
        <ele>154</ele>
        <time>2018-12-26T15:26:31Z</time>
      </trkpt>
      <trkpt lat="44.48748" lon="1.2785">
        <ele>153</ele>
        <time>2018-12-26T15:26:42Z</time>
      </trkpt>
      <trkpt lat="44.48744" lon="1.27841">
        <ele>152</ele>
        <time>2018-12-26T15:26:53Z</time>
      </trkpt>
      <trkpt lat="44.48728" lon="1.27825">
        <ele>147</ele>
        <time>2018-12-26T15:27:17Z</time>
      </trkpt>
      <trkpt lat="44.48717" lon="1.27806">
        <ele>143</ele>
        <time>2018-12-26T15:27:35Z</time>
      </trkpt>
      <trkpt lat="44.4867" lon="1.27808">
        <ele>140</ele>
        <time>2018-12-26T15:28:12Z</time>
      </trkpt>
      <trkpt lat="44.48653" lon="1.27813">
        <ele>139</ele>
        <time>2018-12-26T15:28:28Z</time>
      </trkpt>
      <trkpt lat="44.48636" lon="1.27822">
        <ele>138</ele>
        <time>2018-12-26T15:28:44Z</time>
      </trkpt>
      <trkpt lat="44.48623" lon="1.27821">
        <ele>137</ele>
        <time>2018-12-26T15:28:55Z</time>
      </trkpt>
      <trkpt lat="44.48557" lon="1.27846">
        <ele>128</ele>
        <time>2018-12-26T15:30:04Z</time>
      </trkpt>
      <trkpt lat="44.48484" lon="1.27859">
        <ele>128</ele>
        <time>2018-12-26T15:32:37Z</time>
      </trkpt>
      <trkpt lat="44.48478" lon="1.27869">
        <ele>128</ele>
        <time>2018-12-26T15:32:45Z</time>
      </trkpt>
      <trkpt lat="44.48473" lon="1.27881">
        <ele>128</ele>
        <time>2018-12-26T15:32:52Z</time>
      </trkpt>
      <trkpt lat="44.4847" lon="1.27892">
        <ele>127</ele>
        <time>2018-12-26T15:32:59Z</time>
      </trkpt>
      <trkpt lat="44.48467" lon="1.27906">
        <ele>129</ele>
        <time>2018-12-26T15:33:06Z</time>
      </trkpt>
      <trkpt lat="44.48462" lon="1.27919">
        <ele>129</ele>
        <time>2018-12-26T15:33:15Z</time>
      </trkpt>
      <trkpt lat="44.48455" lon="1.2793">
        <ele>129</ele>
        <time>2018-12-26T15:33:24Z</time>
      </trkpt>
      <trkpt lat="44.48449" lon="1.27944">
        <ele>129</ele>
        <time>2018-12-26T15:33:33Z</time>
      </trkpt>
      <trkpt lat="44.48443" lon="1.27959">
        <ele>129</ele>
        <time>2018-12-26T15:33:41Z</time>
      </trkpt>
      <trkpt lat="44.48437" lon="1.27974">
        <ele>130</ele>
        <time>2018-12-26T15:33:49Z</time>
      </trkpt>
      <trkpt lat="44.48431" lon="1.27987">
        <ele>130</ele>
        <time>2018-12-26T15:33:59Z</time>
      </trkpt>
      <trkpt lat="44.48423" lon="1.28001">
        <ele>130</ele>
        <time>2018-12-26T15:34:08Z</time>
      </trkpt>
      <trkpt lat="44.48416" lon="1.28013">
        <ele>130</ele>
        <time>2018-12-26T15:34:17Z</time>
      </trkpt>
      <trkpt lat="44.48408" lon="1.28027">
        <ele>130</ele>
        <time>2018-12-26T15:34:25Z</time>
      </trkpt>
      <trkpt lat="44.484" lon="1.28038">
        <ele>130</ele>
        <time>2018-12-26T15:34:34Z</time>
      </trkpt>
      <trkpt lat="44.48394" lon="1.28052">
        <ele>131</ele>
        <time>2018-12-26T15:34:42Z</time>
      </trkpt>
      <trkpt lat="44.48386" lon="1.2807">
        <ele>130</ele>
        <time>2018-12-26T15:34:51Z</time>
      </trkpt>
      <trkpt lat="44.48378" lon="1.28081">
        <ele>132</ele>
        <time>2018-12-26T15:34:59Z</time>
      </trkpt>
      <trkpt lat="44.48369" lon="1.28093">
        <ele>132</ele>
        <time>2018-12-26T15:35:08Z</time>
      </trkpt>
      <trkpt lat="44.48361" lon="1.28105">
        <ele>132</ele>
        <time>2018-12-26T15:35:16Z</time>
      </trkpt>
      <trkpt lat="44.48353" lon="1.28121">
        <ele>132</ele>
        <time>2018-12-26T15:35:25Z</time>
      </trkpt>
      <trkpt lat="44.48342" lon="1.28133">
        <ele>132</ele>
        <time>2018-12-26T15:35:34Z</time>
      </trkpt>
      <trkpt lat="44.48332" lon="1.28143">
        <ele>133</ele>
        <time>2018-12-26T15:35:43Z</time>
      </trkpt>
      <trkpt lat="44.48322" lon="1.28154">
        <ele>133</ele>
        <time>2018-12-26T15:35:52Z</time>
      </trkpt>
      <trkpt lat="44.48313" lon="1.28167">
        <ele>133</ele>
        <time>2018-12-26T15:36:01Z</time>
      </trkpt>
      <trkpt lat="44.48303" lon="1.28179">
        <ele>134</ele>
        <time>2018-12-26T15:36:10Z</time>
      </trkpt>
      <trkpt lat="44.48292" lon="1.28194">
        <ele>134</ele>
        <time>2018-12-26T15:36:19Z</time>
      </trkpt>
      <trkpt lat="44.48282" lon="1.28214">
        <ele>135</ele>
        <time>2018-12-26T15:36:29Z</time>
      </trkpt>
      <trkpt lat="44.4827" lon="1.28232">
        <ele>135</ele>
        <time>2018-12-26T15:36:39Z</time>
      </trkpt>
      <trkpt lat="44.4826" lon="1.28246">
        <ele>135</ele>
        <time>2018-12-26T15:36:47Z</time>
      </trkpt>
      <trkpt lat="44.48248" lon="1.28259">
        <ele>136</ele>
        <time>2018-12-26T15:36:56Z</time>
      </trkpt>
      <trkpt lat="44.48236" lon="1.28272">
        <ele>136</ele>
        <time>2018-12-26T15:37:05Z</time>
      </trkpt>
      <trkpt lat="44.48226" lon="1.28286">
        <ele>137</ele>
        <time>2018-12-26T15:37:14Z</time>
      </trkpt>
      <trkpt lat="44.48216" lon="1.283">
        <ele>137</ele>
        <time>2018-12-26T15:37:22Z</time>
      </trkpt>
      <trkpt lat="44.48117" lon="1.2872">
        <ele>140</ele>
        <time>2018-12-26T15:39:13Z</time>
      </trkpt>
      <trkpt lat="44.48114" lon="1.28707">
        <ele>140</ele>
        <time>2018-12-26T15:39:14Z</time>
      </trkpt>
      <trkpt lat="44.4811" lon="1.28692">
        <ele>140</ele>
        <time>2018-12-26T15:39:16Z</time>
      </trkpt>
      <trkpt lat="44.48135" lon="1.28625">
        <ele>132</ele>
        <time>2018-12-26T15:40:43Z</time>
      </trkpt>
      <trkpt lat="44.48144" lon="1.28628">
        <ele>131</ele>
        <time>2018-12-26T15:40:54Z</time>
      </trkpt>
      <trkpt lat="44.48157" lon="1.2863">
        <ele>131</ele>
        <time>2018-12-26T15:41:03Z</time>
      </trkpt>
      <trkpt lat="44.48169" lon="1.2863">
        <ele>131</ele>
        <time>2018-12-26T15:41:11Z</time>
      </trkpt>
      <trkpt lat="44.4818" lon="1.2863">
        <ele>131</ele>
        <time>2018-12-26T15:41:20Z</time>
      </trkpt>
      <trkpt lat="44.48192" lon="1.28626">
        <ele>131</ele>
        <time>2018-12-26T15:41:29Z</time>
      </trkpt>
      <trkpt lat="44.48204" lon="1.28625">
        <ele>131</ele>
        <time>2018-12-26T15:41:38Z</time>
      </trkpt>
      <trkpt lat="44.48215" lon="1.28624">
        <ele>131</ele>
        <time>2018-12-26T15:41:46Z</time>
      </trkpt>
      <trkpt lat="44.48225" lon="1.28622">
        <ele>131</ele>
        <time>2018-12-26T15:42:01Z</time>
      </trkpt>
      <trkpt lat="44.48235" lon="1.28618">
        <ele>131</ele>
        <time>2018-12-26T15:42:11Z</time>
      </trkpt>
      <trkpt lat="44.48251" lon="1.28618">
        <ele>131</ele>
        <time>2018-12-26T15:42:29Z</time>
      </trkpt>
      <trkpt lat="44.48266" lon="1.28622">
        <ele>131</ele>
        <time>2018-12-26T15:42:41Z</time>
      </trkpt>
      <trkpt lat="44.48278" lon="1.28622">
        <ele>131</ele>
        <time>2018-12-26T15:42:49Z</time>
      </trkpt>
      <trkpt lat="44.48292" lon="1.28623">
        <ele>131</ele>
        <time>2018-12-26T15:42:58Z</time>
      </trkpt>
      <trkpt lat="44.48305" lon="1.28622">
        <ele>131</ele>
        <time>2018-12-26T15:43:06Z</time>
      </trkpt>
      <trkpt lat="44.4832" lon="1.28625">
        <ele>131</ele>
        <time>2018-12-26T15:43:15Z</time>
      </trkpt>
      <trkpt lat="44.48336" lon="1.28628">
        <ele>131</ele>
        <time>2018-12-26T15:43:25Z</time>
      </trkpt>
      <trkpt lat="44.48352" lon="1.28626">
        <ele>131</ele>
        <time>2018-12-26T15:43:36Z</time>
      </trkpt>
      <trkpt lat="44.48367" lon="1.28625">
        <ele>131</ele>
        <time>2018-12-26T15:43:46Z</time>
      </trkpt>
      <trkpt lat="44.48388" lon="1.28626">
        <ele>131</ele>
        <time>2018-12-26T15:44:00Z</time>
      </trkpt>
      <trkpt lat="44.48403" lon="1.28623">
        <ele>131</ele>
        <time>2018-12-26T15:44:08Z</time>
      </trkpt>
      <trkpt lat="44.4842" lon="1.28625">
        <ele>132</ele>
        <time>2018-12-26T15:44:20Z</time>
      </trkpt>
      <trkpt lat="44.48439" lon="1.28627">
        <ele>132</ele>
        <time>2018-12-26T15:44:31Z</time>
      </trkpt>
      <trkpt lat="44.48457" lon="1.28633">
        <ele>133</ele>
        <time>2018-12-26T15:44:42Z</time>
      </trkpt>
      <trkpt lat="44.48471" lon="1.28638">
        <ele>133</ele>
        <time>2018-12-26T15:44:52Z</time>
      </trkpt>
      <trkpt lat="44.48485" lon="1.28642">
        <ele>133</ele>
        <time>2018-12-26T15:45:03Z</time>
      </trkpt>
      <trkpt lat="44.48503" lon="1.28637">
        <ele>134</ele>
        <time>2018-12-26T15:45:13Z</time>
      </trkpt>
      <trkpt lat="44.48524" lon="1.28635">
        <ele>133</ele>
        <time>2018-12-26T15:45:23Z</time>
      </trkpt>
      <trkpt lat="44.48543" lon="1.28632">
        <ele>133</ele>
        <time>2018-12-26T15:45:33Z</time>
      </trkpt>
      <trkpt lat="44.48558" lon="1.28631">
        <ele>133</ele>
        <time>2018-12-26T15:45:41Z</time>
      </trkpt>
      <trkpt lat="44.48573" lon="1.28631">
        <ele>133</ele>
        <time>2018-12-26T15:45:49Z</time>
      </trkpt>
      <trkpt lat="44.48587" lon="1.28629">
        <ele>133</ele>
        <time>2018-12-26T15:45:57Z</time>
      </trkpt>
      <trkpt lat="44.48604" lon="1.28627">
        <ele>133</ele>
        <time>2018-12-26T15:46:06Z</time>
      </trkpt>
      <trkpt lat="44.48622" lon="1.28624">
        <ele>134</ele>
        <time>2018-12-26T15:46:15Z</time>
      </trkpt>
      <trkpt lat="44.4864" lon="1.28625">
        <ele>135</ele>
        <time>2018-12-26T15:46:27Z</time>
      </trkpt>
      <trkpt lat="44.4866" lon="1.28627">
        <ele>135</ele>
        <time>2018-12-26T15:46:41Z</time>
      </trkpt>
      <trkpt lat="44.48671" lon="1.28634">
        <ele>135</ele>
        <time>2018-12-26T15:46:51Z</time>
      </trkpt>
      <trkpt lat="44.48686" lon="1.28643">
        <ele>136</ele>
        <time>2018-12-26T15:47:05Z</time>
      </trkpt>
      <trkpt lat="44.48704" lon="1.28645">
        <ele>136</ele>
        <time>2018-12-26T15:47:20Z</time>
      </trkpt>
      <trkpt lat="44.48723" lon="1.28649">
        <ele>135</ele>
        <time>2018-12-26T15:47:34Z</time>
      </trkpt>
      <trkpt lat="44.4874" lon="1.28657">
        <ele>137</ele>
        <time>2018-12-26T15:47:46Z</time>
      </trkpt>
      <trkpt lat="44.48757" lon="1.2866">
        <ele>137</ele>
        <time>2018-12-26T15:47:58Z</time>
      </trkpt>
      <trkpt lat="44.48791" lon="1.28667">
        <ele>138</ele>
        <time>2018-12-26T15:48:22Z</time>
      </trkpt>
      <trkpt lat="44.48809" lon="1.28672">
        <ele>138</ele>
        <time>2018-12-26T15:48:34Z</time>
      </trkpt>
      <trkpt lat="44.48838" lon="1.28674">
        <ele>139</ele>
        <time>2018-12-26T15:48:53Z</time>
      </trkpt>
      <trkpt lat="44.4887" lon="1.2869">
        <ele>139</ele>
        <time>2018-12-26T15:49:15Z</time>
      </trkpt>
      <trkpt lat="44.48903" lon="1.28704">
        <ele>140</ele>
        <time>2018-12-26T15:49:36Z</time>
      </trkpt>
      <trkpt lat="44.48925" lon="1.28719">
        <ele>140</ele>
        <time>2018-12-26T15:49:53Z</time>
      </trkpt>
      <trkpt lat="44.48943" lon="1.28735">
        <ele>140</ele>
        <time>2018-12-26T15:50:07Z</time>
      </trkpt>
      <trkpt lat="44.48962" lon="1.28743">
        <ele>140</ele>
        <time>2018-12-26T15:50:18Z</time>
      </trkpt>
      <trkpt lat="44.48978" lon="1.28752">
        <ele>140</ele>
        <time>2018-12-26T15:50:29Z</time>
      </trkpt>
      <trkpt lat="44.48994" lon="1.28762">
        <ele>140</ele>
        <time>2018-12-26T15:50:39Z</time>
      </trkpt>
      <trkpt lat="44.49008" lon="1.28771">
        <ele>140</ele>
        <time>2018-12-26T15:50:52Z</time>
      </trkpt>
      <trkpt lat="44.4902" lon="1.28781">
        <ele>140</ele>
        <time>2018-12-26T15:51:04Z</time>
      </trkpt>
      <trkpt lat="44.49036" lon="1.28793">
        <ele>140</ele>
        <time>2018-12-26T15:51:14Z</time>
      </trkpt>
      <trkpt lat="44.49047" lon="1.28806">
        <ele>140</ele>
        <time>2018-12-26T15:51:24Z</time>
      </trkpt>
      <trkpt lat="44.49057" lon="1.28819">
        <ele>140</ele>
        <time>2018-12-26T15:51:33Z</time>
      </trkpt>
      <trkpt lat="44.49069" lon="1.28833">
        <ele>140</ele>
        <time>2018-12-26T15:51:44Z</time>
      </trkpt>
      <trkpt lat="44.4908" lon="1.28849">
        <ele>140</ele>
        <time>2018-12-26T15:51:56Z</time>
      </trkpt>
      <trkpt lat="44.4909" lon="1.28869">
        <ele>140</ele>
        <time>2018-12-26T15:52:09Z</time>
      </trkpt>
      <trkpt lat="44.49099" lon="1.28889">
        <ele>140</ele>
        <time>2018-12-26T15:52:21Z</time>
      </trkpt>
      <trkpt lat="44.49108" lon="1.28913">
        <ele>140</ele>
        <time>2018-12-26T15:52:32Z</time>
      </trkpt>
      <trkpt lat="44.49113" lon="1.28938">
        <ele>140</ele>
        <time>2018-12-26T15:52:46Z</time>
      </trkpt>
      <trkpt lat="44.49121" lon="1.28961">
        <ele>140</ele>
        <time>2018-12-26T15:52:58Z</time>
      </trkpt>
      <trkpt lat="44.49129" lon="1.28981">
        <ele>140</ele>
        <time>2018-12-26T15:53:08Z</time>
      </trkpt>
      <trkpt lat="44.49137" lon="1.29">
        <ele>140</ele>
        <time>2018-12-26T15:53:16Z</time>
      </trkpt>
      <trkpt lat="44.49144" lon="1.29028">
        <ele>140</ele>
        <time>2018-12-26T15:53:25Z</time>
      </trkpt>
      <trkpt lat="44.49149" lon="1.29053">
        <ele>140</ele>
        <time>2018-12-26T15:53:35Z</time>
      </trkpt>
      <trkpt lat="44.49151" lon="1.29072">
        <ele>140</ele>
        <time>2018-12-26T15:53:47Z</time>
      </trkpt>
      <trkpt lat="44.49154" lon="1.29093">
        <ele>140</ele>
        <time>2018-12-26T15:54:00Z</time>
      </trkpt>
      <trkpt lat="44.49156" lon="1.29116">
        <ele>139</ele>
        <time>2018-12-26T15:54:13Z</time>
      </trkpt>
      <trkpt lat="44.49159" lon="1.29131">
        <ele>139</ele>
        <time>2018-12-26T15:54:21Z</time>
      </trkpt>
      <trkpt lat="44.49161" lon="1.29147">
        <ele>139</ele>
        <time>2018-12-26T15:54:29Z</time>
      </trkpt>
      <trkpt lat="44.49162" lon="1.29162">
        <ele>139</ele>
        <time>2018-12-26T15:54:36Z</time>
      </trkpt>
      <trkpt lat="44.49163" lon="1.29177">
        <ele>139</ele>
        <time>2018-12-26T15:54:43Z</time>
      </trkpt>
      <trkpt lat="44.49164" lon="1.29194">
        <ele>139</ele>
        <time>2018-12-26T15:54:51Z</time>
      </trkpt>
      <trkpt lat="44.4916" lon="1.2921">
        <ele>137</ele>
        <time>2018-12-26T15:55:07Z</time>
      </trkpt>
      <trkpt lat="44.49157" lon="1.29228">
        <ele>137</ele>
        <time>2018-12-26T15:55:16Z</time>
      </trkpt>
      <trkpt lat="44.49153" lon="1.29244">
        <ele>137</ele>
        <time>2018-12-26T15:55:24Z</time>
      </trkpt>
      <trkpt lat="44.49147" lon="1.29262">
        <ele>137</ele>
        <time>2018-12-26T15:55:35Z</time>
      </trkpt>
      <trkpt lat="44.49141" lon="1.29279">
        <ele>135</ele>
        <time>2018-12-26T15:55:43Z</time>
      </trkpt>
      <trkpt lat="44.49137" lon="1.29295">
        <ele>135</ele>
        <time>2018-12-26T15:55:51Z</time>
      </trkpt>
      <trkpt lat="44.49134" lon="1.29311">
        <ele>135</ele>
        <time>2018-12-26T15:56:00Z</time>
      </trkpt>
      <trkpt lat="44.49132" lon="1.29325">
        <ele>135</ele>
        <time>2018-12-26T15:56:08Z</time>
      </trkpt>
      <trkpt lat="44.49132" lon="1.29341">
        <ele>135</ele>
        <time>2018-12-26T15:56:18Z</time>
      </trkpt>
      <trkpt lat="44.49132" lon="1.29358">
        <ele>134</ele>
        <time>2018-12-26T15:56:29Z</time>
      </trkpt>
      <trkpt lat="44.49128" lon="1.29375">
        <ele>134</ele>
        <time>2018-12-26T15:56:38Z</time>
      </trkpt>
      <trkpt lat="44.49125" lon="1.29391">
        <ele>134</ele>
        <time>2018-12-26T15:56:46Z</time>
      </trkpt>
      <trkpt lat="44.4912" lon="1.29409">
        <ele>134</ele>
        <time>2018-12-26T15:56:57Z</time>
      </trkpt>
      <trkpt lat="44.49117" lon="1.29428">
        <ele>136</ele>
        <time>2018-12-26T15:57:06Z</time>
      </trkpt>
      <trkpt lat="44.49111" lon="1.29446">
        <ele>136</ele>
        <time>2018-12-26T15:57:15Z</time>
      </trkpt>
      <trkpt lat="44.49106" lon="1.29467">
        <ele>136</ele>
        <time>2018-12-26T15:57:26Z</time>
      </trkpt>
      <trkpt lat="44.49108" lon="1.29489">
        <ele>136</ele>
        <time>2018-12-26T15:57:38Z</time>
      </trkpt>
      <trkpt lat="44.4912" lon="1.29498">
        <ele>137</ele>
        <time>2018-12-26T15:57:53Z</time>
      </trkpt>
      <trkpt lat="44.49131" lon="1.29501">
        <ele>135</ele>
        <time>2018-12-26T15:59:39Z</time>
      </trkpt>
    </trkseg>
  </trk>
</gpx>